| time (UTC) | temp C | wind direction | speed KPH | gust KPH | rain 1hr cm | rain 24hr cm | rain mn cm | humidity % | barometer mb |
| 20260504151027 | 18 | 269 | 0.0 | 6.4 | 0.00 | 0.00 | 0.00 | 35 | 1011.7 |
| 20260504150525 | 18 | 120 | 0.0 | 4.8 | 0.00 | 0.00 | 0.00 | 35 | 1011.7 |
| 20260504140956 | 16 | 229 | 3.2 | 3.2 | 0.00 | 0.00 | 0.00 | 40 | 1012.3 |
| 20260504140453 | 15 | 123 | 1.6 | 6.4 | 0.00 | 0.00 | 0.00 | 42 | 1012.3 |
| 20260504130418 | 12 | 143 | 1.6 | 8.0 | 0.00 | 0.00 | 0.00 | 48 | 1012.8 |
| 20260504110304 | 6 | 135 | 4.8 | 6.4 | 0.00 | 0.00 | 0.00 | 74 | 1012.7 |
| 20260504100223 | 6 | 135 | 6.4 | 6.4 | 0.00 | 0.00 | 0.00 | 74 | 1012.4 |
| 20260504081616 | 6 | 138 | 6.4 | 6.4 | 0.00 | 0.00 | 0.00 | 72 | 1012.1 |
| 20260504081111 | 6 | 138 | 3.2 | 6.4 | 0.00 | 0.00 | 0.00 | 72 | 1012.1 |
| 20260504080609 | 6 | 139 | 6.4 | 6.4 | 0.00 | 0.00 | 0.00 | 72 | 1012.1 |
| 20260504080105 | 5 | 139 | 4.8 | 4.8 | 0.00 | 0.00 | 0.00 | 74 | 1011.8 |
| 20260504050421 | 6 | 139 | 4.8 | 6.4 | 0.00 | 0.00 | 0.00 | 64 | 1011.5 |
| 20260504045918 | 7 | 147 | 6.4 | 6.4 | 0.00 | 0.00 | 0.00 | 64 | 1011.4 |
| 20260504045414 | 7 | 149 | 3.2 | 6.4 | 0.00 | 0.00 | 0.00 | 62 | 1011.3 |
| 20260504044910 | 6 | 145 | 6.4 | 6.4 | 0.00 | 0.00 | 0.00 | 62 | 1011.4 |
| 20260504044408 | 6 | 143 | 4.8 | 6.4 | 0.00 | 0.00 | 0.00 | 61 | 1011.3 |
| 20260504043905 | 6 | 144 | 4.8 | 6.4 | 0.00 | 0.00 | 0.00 | 62 | 1011.4 |
| 20260504043402 | 7 | 141 | 6.4 | 6.4 | 0.00 | 0.00 | 0.00 | 63 | 1011.3 |
| 20260504042859 | 7 | 147 | 6.4 | 6.4 | 0.00 | 0.00 | 0.00 | 62 | 1011.4 |
| 20260504042355 | 7 | 141 | 4.8 | 6.4 | 0.00 | 0.00 | 0.00 | 61 | 1011.2 |
| 20260504041852 | 7 | 134 | 4.8 | 6.4 | 0.00 | 0.00 | 0.00 | 63 | 1011.3 |
| 20260504041348 | 7 | 144 | 4.8 | 6.4 | 0.00 | 0.00 | 0.00 | 61 | 1011.4 |
| 20260504040845 | 7 | 143 | 4.8 | 6.4 | 0.00 | 0.00 | 0.00 | 59 | 1011.2 |
| 20260504040342 | 7 | 148 | 4.8 | 6.4 | 0.00 | 0.00 | 0.00 | 59 | 1011.3 |
| 20260504035838 | 7 | 150 | 3.2 | 4.8 | 0.00 | 0.00 | 0.00 | 60 | 1011.2 |
| 20260504035336 | 7 | 150 | 4.8 | 4.8 | 0.00 | 0.00 | 0.00 | 56 | 1011.1 |
| 20260504034832 | 7 | 145 | 4.8 | 4.8 | 0.00 | 0.00 | 0.00 | 58 | 1011.3 |
| 20260504034330 | 7 | 146 | 4.8 | 6.4 | 0.00 | 0.00 | 0.00 | 58 | 1011.2 |
| 20260504033827 | 7 | 152 | 4.8 | 6.4 | 0.00 | 0.00 | 0.00 | 58 | 1011.3 |
| 20260504033325 | 7 | 152 | 4.8 | 6.4 | 0.00 | 0.00 | 0.00 | 57 | 1011.2 |
| 20260504032821 | 8 | 148 | 4.8 | 6.4 | 0.00 | 0.00 | 0.00 | 56 | 1011.1 |
| 20260504032319 | 8 | 159 | 3.2 | 4.8 | 0.00 | 0.00 | 0.00 | 55 | 1011.5 |
| 20260504031815 | 8 | 159 | 3.2 | 4.8 | 0.00 | 0.00 | 0.00 | 56 | 1011.0 |
| 20260504031313 | 8 | 151 | 3.2 | 4.8 | 0.00 | 0.00 | 0.00 | 56 | 1011.1 |
| 20260504030809 | 8 | 147 | 3.2 | 4.8 | 0.00 | 0.00 | 0.00 | 53 | 1011.2 |
| 20260504030306 | 8 | 151 | 3.2 | 4.8 | 0.00 | 0.00 | 0.00 | 53 | 1011.2 |
| 20260504025802 | 8 | 146 | 3.2 | 4.8 | 0.00 | 0.00 | 0.00 | 54 | 1011.2 |
| 20260504025259 | 8 | 142 | 3.2 | 6.4 | 0.00 | 0.00 | 0.00 | 54 | 1011.4 |
| 20260504024755 | 8 | 142 | 4.8 | 4.8 | 0.00 | 0.00 | 0.00 | 53 | 1011.3 |
| 20260504024252 | 8 | 143 | 4.8 | 4.8 | 0.00 | 0.00 | 0.00 | 52 | 1011.5 |
| 20260504023749 | 9 | 142 | 3.2 | 4.8 | 0.00 | 0.00 | 0.00 | 50 | 1011.3 |
| 20260504023245 | 9 | 139 | 4.8 | 4.8 | 0.00 | 0.00 | 0.00 | 49 | 1011.4 |
| 20260504022741 | 9 | 159 | 3.2 | 6.4 | 0.00 | 0.00 | 0.00 | 49 | 1011.4 |
| 20260504022238 | 9 | 136 | 4.8 | 4.8 | 0.00 | 0.00 | 0.00 | 48 | 1011.2 |
| 20260504021735 | 9 | 143 | 3.2 | 4.8 | 0.00 | 0.00 | 0.00 | 47 | 1011.3 |
| 20260504021232 | 9 | 153 | 3.2 | 4.8 | 0.00 | 0.00 | 0.00 | 48 | 1011.1 |
| 20260504020729 | 8 | 151 | 3.2 | 4.8 | 0.00 | 0.00 | 0.00 | 48 | 1011.2 |
| 20260504020226 | 8 | 144 | 4.8 | 4.8 | 0.00 | 0.00 | 0.00 | 49 | 1011.3 |
| 20260504015722 | 8 | 158 | 3.2 | 4.8 | 0.00 | 0.00 | 0.00 | 50 | 1011.1 |
| 20260504015218 | 8 | 156 | 3.2 | 4.8 | 0.00 | 0.00 | 0.00 | 49 | 1011.1 |
| 20260504014714 | 8 | 149 | 3.2 | 4.8 | 0.00 | 0.00 | 0.00 | 49 | 1011.1 |
| 20260504014211 | 8 | 143 | 3.2 | 4.8 | 0.00 | 0.00 | 0.00 | 48 | 1011.3 |
| 20260504013709 | 8 | 156 | 3.2 | 4.8 | 0.00 | 0.00 | 0.00 | 48 | 1011.2 |
| 20260504013206 | 9 | 157 | 3.2 | 6.4 | 0.00 | 0.00 | 0.00 | 48 | 1011.2 |
| 20260504012703 | 9 | 142 | 4.8 | 6.4 | 0.00 | 0.00 | 0.00 | 47 | 1011.2 |
| 20260504012201 | 9 | 158 | 3.2 | 6.4 | 0.00 | 0.00 | 0.00 | 47 | 1011.0 |
| 20260504011657 | 9 | 141 | 4.8 | 4.8 | 0.00 | 0.00 | 0.00 | 47 | 1010.9 |
| 20260504011154 | 9 | 143 | 6.4 | 6.4 | 0.00 | 0.00 | 0.00 | 47 | 1011.2 |
| 20260504010650 | 9 | 142 | 3.2 | 4.8 | 0.00 | 0.00 | 0.00 | 47 | 1011.0 |
| 20260504010145 | 9 | 152 | 3.2 | 4.8 | 0.00 | 0.00 | 0.00 | 46 | 1010.8 |
| 20260504005643 | 9 | 134 | 3.2 | 4.8 | 0.00 | 0.00 | 0.00 | 45 | 1010.9 |
| 20260504005139 | 9 | 142 | 3.2 | 4.8 | 0.00 | 0.00 | 0.00 | 45 | 1010.7 |
| 20260504004638 | 9 | 142 | 3.2 | 4.8 | 0.00 | 0.00 | 0.00 | 46 | 1010.8 |
| 20260504004134 | 10 | 135 | 3.2 | 3.2 | 0.00 | 0.00 | 0.00 | 46 | 1010.6 |
| 20260504003630 | 10 | 141 | 4.8 | 6.4 | 0.00 | 0.00 | 0.00 | 44 | 1010.5 |
| 20260504003127 | 10 | 140 | 4.8 | 4.8 | 0.00 | 0.00 | 0.00 | 44 | 1010.6 |
| 20260504002624 | 10 | 138 | 4.8 | 4.8 | 0.00 | 0.00 | 0.00 | 44 | 1010.4 |
| 20260504002122 | 11 | 151 | 3.2 | 4.8 | 0.00 | 0.00 | 0.00 | 43 | 1010.5 |
| 20260504001619 | 11 | 134 | 3.2 | 4.8 | 0.00 | 0.00 | 0.00 | 41 | 1010.3 |
| 20260504001115 | 11 | 155 | 1.6 | 3.2 | 0.00 | 0.00 | 0.00 | 39 | 1010.1 |
| 20260504000612 | 11 | 144 | 1.6 | 3.2 | 0.00 | 0.00 | 0.00 | 39 | 1010.0 |
| 20260504000110 | 11 | 143 | 0.0 | 3.2 | 0.00 | 0.00 | 0.00 | 39 | 1010.2 |
| 20260503235608 | 11 | 101 | 1.6 | 3.2 | 0.00 | 0.00 | 0.00 | 39 | 1010.0 |
| 20260503235104 | 11 | 157 | 1.6 | 3.2 | 0.00 | 0.00 | 0.00 | 38 | 1009.9 |
| 20260503234603 | 11 | 193 | 0.0 | 3.2 | 0.00 | 0.00 | 0.00 | 37 | 1009.9 |
| 20260503234100 | 11 | 202 | 0.0 | 3.2 | 0.00 | 0.00 | 0.00 | 39 | 1009.9 |
| 20260503233556 | 12 | 195 | 0.0 | 3.2 | 0.00 | 0.00 | 0.00 | 37 | 1009.7 |
| 20260503233052 | 12 | 150 | 0.0 | 3.2 | 0.00 | 0.00 | 0.00 | 37 | 1009.7 |
| 20260503232550 | 12 | 128 | 1.6 | 3.2 | 0.00 | 0.00 | 0.00 | 36 | 1009.8 |
| 20260503232047 | 12 | 194 | 0.0 | 3.2 | 0.00 | 0.00 | 0.00 | 35 | 1009.5 |
| 20260503231545 | 12 | 114 | 0.0 | 1.6 | 0.00 | 0.00 | 0.00 | 34 | 1009.5 |
| 20260503231041 | 12 | 232 | 0.0 | 4.8 | 0.00 | 0.00 | 0.00 | 34 | 1009.4 |
| 20260503230538 | 12 | 125 | 0.0 | 1.6 | 0.00 | 0.00 | 0.00 | 34 | 1009.5 |
| 20260503230036 | 12 | 283 | 0.0 | 3.2 | 0.00 | 0.00 | 0.00 | 32 | 1009.5 |
| 20260503225533 | 13 | 155 | 1.6 | 6.4 | 0.00 | 0.00 | 0.00 | 33 | 1009.5 |
| 20260503225033 | 13 | 97 | 0.0 | 8.0 | 0.00 | 0.00 | 0.00 | 33 | 1009.3 |
| 20260503224531 | 13 | 31 | 3.2 | 4.8 | 0.00 | 0.00 | 0.00 | 30 | 1009.1 |
| 20260503224028 | 13 | 48 | 1.6 | 6.4 | 0.00 | 0.00 | 0.00 | 31 | 1009.3 |
| 20260503223526 | 13 | 180 | 3.2 | 6.4 | 0.00 | 0.00 | 0.00 | 30 | 1009.0 |
| 20260503223021 | 13 | 118 | 3.2 | 4.8 | 0.00 | 0.00 | 0.00 | 31 | 1009.4 |
| 20260503222520 | 13 | 125 | 3.2 | 6.4 | 0.00 | 0.00 | 0.00 | 29 | 1009.2 |
| 20260503222018 | 12 | 60 | 1.6 | 6.4 | 0.00 | 0.00 | 0.00 | 30 | 1009.2 |
| 20260503221516 | 12 | 216 | 1.6 | 6.4 | 0.00 | 0.00 | 0.00 | 29 | 1009.2 |
| 20260503221013 | 13 | 309 | 0.0 | 4.8 | 0.00 | 0.00 | 0.00 | 29 | 1009.2 |
| 20260503220509 | 13 | 305 | 3.2 | 8.0 | 0.00 | 0.00 | 0.00 | 29 | 1009.1 |
| 20260503220006 | 13 | 197 | 3.2 | 8.0 | 0.00 | 0.00 | 0.00 | 30 | 1009.0 |
| 20260503215503 | 13 | 299 | 4.8 | 6.4 | 0.00 | 0.00 | 0.00 | 29 | 1009.2 |
| 20260503215000 | 13 | 282 | 0.0 | 3.2 | 0.00 | 0.00 | 0.00 | 29 | 1009.3 |
| 20260503214458 | 13 | 127 | 0.0 | 3.2 | 0.00 | 0.00 | 0.00 | 30 | 1009.0 |
| 20260503213955 | 13 | 225 | 3.2 | 4.8 | 0.00 | 0.00 | 0.00 | 30 | 1009.0 |
| 20260503213453 | 13 | 100 | 4.8 | 6.4 | 0.00 | 0.00 | 0.00 | 29 | 1009.0 |
| 20260503212949 | 13 | 49 | 0.0 | 6.4 | 0.00 | 0.00 | 0.00 | 31 | 1008.9 |
| 20260503212446 | 13 | 217 | 0.0 | 4.8 | 0.00 | 0.00 | 0.00 | 32 | 1009.1 |
| 20260503211944 | 13 | 337 | 1.6 | 8.0 | 0.00 | 0.00 | 0.00 | 31 | 1008.9 |
| 20260503211441 | 13 | 73 | 1.6 | 4.8 | 0.00 | 0.00 | 0.00 | 32 | 1008.9 |
| 20260503210936 | 13 | 163 | 1.6 | 4.8 | 0.00 | 0.00 | 0.00 | 29 | 1009.0 |
| 20260503210434 | 13 | 85 | 9.7 | 14.5 | 0.00 | 0.00 | 0.00 | 30 | 1009.1 |
| 20260503205934 | 13 | 307 | 4.8 | 8.0 | 0.00 | 0.00 | 0.00 | 31 | 1008.7 |
| 20260503205431 | 13 | 227 | 3.2 | 4.8 | 0.00 | 0.00 | 0.00 | 29 | 1008.7 |
| 20260503204927 | 13 | 121 | 1.6 | 6.4 | 0.00 | 0.00 | 0.00 | 32 | 1009.1 |
| 20260503204425 | 13 | 260 | 1.6 | 8.0 | 0.00 | 0.00 | 0.00 | 30 | 1009.2 |
| 20260503203921 | 13 | 136 | 3.2 | 8.0 | 0.00 | 0.00 | 0.00 | 30 | 1009.0 |
| 20260503203419 | 13 | 136 | 1.6 | 4.8 | 0.00 | 0.00 | 0.00 | 32 | 1009.1 |
| 20260503202916 | 13 | 41 | 1.6 | 3.2 | 0.00 | 0.00 | 0.00 | 32 | 1009.0 |
| 20260503202414 | 13 | 2 | 1.6 | 9.7 | 0.00 | 0.00 | 0.00 | 31 | 1009.0 |
| 20260503201912 | 13 | 173 | 3.2 | 6.4 | 0.00 | 0.00 | 0.00 | 33 | 1009.1 |
| 20260503201409 | 13 | 300 | 3.2 | 4.8 | 0.00 | 0.00 | 0.00 | 31 | 1009.1 |
| 20260503200906 | 13 | 183 | 6.4 | 6.4 | 0.00 | 0.00 | 0.00 | 33 | 1009.0 |
| 20260503200402 | 13 | 263 | 4.8 | 6.4 | 0.00 | 0.00 | 0.00 | 32 | 1009.0 |
| 20260503195859 | 13 | 58 | 3.2 | 12.9 | 0.00 | 0.00 | 0.00 | 34 | 1009.3 |
| 20260503195356 | 13 | 343 | 4.8 | 11.3 | 0.00 | 0.00 | 0.00 | 32 | 1009.2 |
| 20260503194853 | 13 | 214 | 0.0 | 4.8 | 0.00 | 0.00 | 0.00 | 35 | 1009.2 |
| 20260503194349 | 13 | 261 | 4.8 | 8.0 | 0.00 | 0.00 | 0.00 | 33 | 1009.4 |
| 20260503193845 | 12 | 337 | 3.2 | 4.8 | 0.00 | 0.00 | 0.00 | 35 | 1009.2 |
| 20260503193341 | 13 | 335 | 1.6 | 6.4 | 0.00 | 0.00 | 0.00 | 33 | 1009.3 |
| 20260503192837 | 13 | 294 | 6.4 | 6.4 | 0.00 | 0.00 | 0.00 | 33 | 1009.3 |
| 20260503192333 | 12 | 40 | 6.4 | 8.0 | 0.00 | 0.00 | 0.00 | 34 | 1009.4 |
| 20260503191829 | 13 | 220 | 4.8 | 11.3 | 0.00 | 0.00 | 0.00 | 33 | 1009.6 |
| 20260503191326 | 13 | 349 | 3.2 | 4.8 | 0.00 | 0.00 | 0.00 | 33 | 1009.6 |
| 20260503190823 | 13 | 147 | 0.0 | 6.4 | 0.00 | 0.00 | 0.00 | 32 | 1009.6 |
| 20260503190320 | 12 | 224 | 0.0 | 6.4 | 0.00 | 0.00 | 0.00 | 35 | 1009.5 |
| 20260503185817 | 12 | 269 | 3.2 | 11.3 | 0.00 | 0.00 | 0.00 | 32 | 1009.6 |
| 20260503185314 | 13 | 278 | 6.4 | 9.7 | 0.00 | 0.00 | 0.00 | 34 | 1009.6 |
| 20260503184813 | 12 | 128 | 1.6 | 6.4 | 0.00 | 0.00 | 0.00 | 39 | 1009.5 |
| 20260503184310 | 11 | 103 | 6.4 | 6.4 | 0.00 | 0.00 | 0.00 | 37 | 1009.7 |
| 20260503183806 | 11 | 117 | 3.2 | 6.4 | 0.00 | 0.00 | 0.00 | 37 | 1010.0 |
| 20260503183303 | 11 | 287 | 1.6 | 6.4 | 0.00 | 0.00 | 0.00 | 36 | 1009.9 |
| 20260503182800 | 11 | 78 | 3.2 | 8.0 | 0.00 | 0.00 | 0.00 | 37 | 1009.7 |
| 20260503182300 | 11 | 353 | 1.6 | 6.4 | 0.00 | 0.00 | 0.00 | 36 | 1009.9 |
| 20260503181756 | 13 | 335 | 0.0 | 17.7 | 0.00 | 0.00 | 0.00 | 34 | 1010.0 |
| 20260503181253 | 13 | 83 | 3.2 | 6.4 | 0.00 | 0.00 | 0.00 | 37 | 1009.8 |
| 20260503180749 | 13 | 43 | 3.2 | 6.4 | 0.00 | 0.00 | 0.00 | 37 | 1009.7 |
| 20260503180248 | 12 | 4 | 3.2 | 8.0 | 0.00 | 0.00 | 0.00 | 38 | 1009.7 |
| 20260503175744 | 11 | 299 | 4.8 | 6.4 | 0.00 | 0.00 | 0.00 | 41 | 1009.8 |
| 20260503175242 | 11 | 72 | 6.4 | 8.0 | 0.00 | 0.00 | 0.00 | 38 | 1009.8 |
| 20260503174738 | 12 | 238 | 3.2 | 9.7 | 0.00 | 0.00 | 0.00 | 35 | 1009.9 |
| 20260503174236 | 12 | 38 | 0.0 | 11.3 | 0.00 | 0.00 | 0.00 | 39 | 1010.1 |
| 20260503173736 | 12 | 347 | 0.0 | 6.4 | 0.00 | 0.00 | 0.00 | 36 | 1010.0 |
| 20260503173232 | 12 | 46 | 1.6 | 4.8 | 0.00 | 0.00 | 0.00 | 40 | 1010.1 |
| 20260503172729 | 11 | 98 | 3.2 | 8.0 | 0.00 | 0.00 | 0.00 | 42 | 1010.1 |
| 20260503172226 | 11 | 269 | 6.4 | 11.3 | 0.00 | 0.00 | 0.00 | 40 | 1010.1 |
| 20260503171723 | 10 | 358 | 1.6 | 9.7 | 0.00 | 0.00 | 0.00 | 40 | 1010.1 |
| 20260503171220 | 11 | 60 | 8.0 | 8.0 | 0.00 | 0.00 | 0.00 | 40 | 1010.2 |
| 20260503170717 | 11 | 271 | 4.8 | 9.7 | 0.00 | 0.00 | 0.00 | 38 | 1010.3 |
| 20260503170214 | 11 | 54 | 1.6 | 8.0 | 0.00 | 0.00 | 0.00 | 39 | 1010.0 |
| 20260503160136 | 10 | 190 | 4.8 | 6.4 | 0.00 | 0.00 | 0.00 | 38 | 1010.2 |